Portada
METAR-TAF:

METAR-TAF

Aeroports :

Honiara, Guadalcanal, Illes Salomó

latitud: 09-25S, longitud: 160-03E, altitud: 8 m

Observació

L'informe es va fer fa 42 minuts, a les 14:00 UTC
Vent 4 kt del Sud/Sud-Est
Temperatura 27°C
Humitat 89%
Pressió 1009 hPa
Visibilitat 10 km o més
Escasses núvols a una alçada de 1500 ft
Núvols disperses a una alçada de 2800 ft

METAR: AGGH 231400Z 16004KT 9999 FEW015 SCT028 27/25 Q1009

Hora: 01:42 (14:42 UTC)

Pronòstic

L'informe es va fer fa 3 hores i 27 minuts, a les 11:15 UTC
Pronòstic vàlid del 23 a les 12 UTC al 24 a les 12 UTC
Vent 3 kt amb direcció variable
Visibilitat: 1009 m
Núvols disperses a una alçada de 1700 ft

TAF: AGGH 231115Z 2312/2412 VRB03KT 9999 SCT017 T 27 26 25 26 Q 1010 1008 1007 1009

Observacions i pronòstics meteorològics de més de 4000 aeroports (METAR i TAF).

Les estacions disponibles són els punts grocs i vermells al mapa.

Posi el ratolí al punt desitjat per veure el nom de l'estació.

Feu clic per veure les observacions i els pronòstics meteorològics.

Per canviar el mapa: feu clic els botons verds amb una creu de color negre per apropar; al botó verd amb un guió per allunyar la imatge; o en les fletxes verdes per a mapes adjacents.


METAR-TAF: